Main page
METAR-TAF:

METAR-TAF

Airports :

Arnhem, Netherlands

Deelen Air Base

latitude: 52-04N, longitude: 005-53E, elevation: 48 m

Current weather observation

The report was made 25 minutes ago, at 23:55 UTC
Wind 6 kt from the North/Northeast, varying between North and Northeast
Temperature -2°C
Humidity 86%
Pressure 1024 hPa
Visibility: 6000 m
mist

METAR: EHDL 222355Z AUTO 03006KT 350V050 6000 BR NCD M02/M04 Q1024 WHT

Time: 01:20 (00:20 UTC)

Forecast

The report was made 6 hours and 27 minutes ago, at 17:53 UTC
Forecast valid from 22 at 18 UTC to 23 at 06 UTC
Wind 7 kt from the Northeast
Visibility 10 km or more
no clouds below 1500 m and no cumulonimbus
Probability 30% :
Temporary
from 23 at 05 UTC to 23 at 06 UTC
Scattered clouds at a height of 500 ft
Broken clouds at a height of 900 ft

TAF: EHDL 221753Z 2218/2306 05007KT CAVOK PROB30 TEMPO 2305/2306 SCT005 BKN009

Weather observations and forecasts of more than 4000 airports (METAR and TAF reports).

The available stations are represented by yellow and red dots on the map.

Hover mouse over dot to see the name of the station.

Then click to see weather observations and forecasts.

To change the map : click on the green buttons with a black cross to zoom in, on the green button with a dash to zoom out, or on the green arrows for adjacent maps.


METAR-TAF: